Time;durP1;ratioP1;P1;durP2;ratioP2;P2;SDS_P1;SDS_P2;PMS_P1;PMS_P2;Temp;Humidity;BMP_temperature;BMP_pressure;BME280_temperature;BME280_humidity;BME280_pressure;Samples;Min_cycle;Max_cycle;Signal;HPM_P1;HPM_P2
2022/03/20 00:00:00;;;;;;;24.60;15.97;;;;;;;;;;4977514;28;20422;-57
2022/03/20 00:02:28;;;;;;;24.17;14.23;;;;;;;;;;4978173;28;20411;-57
2022/03/20 00:04:54;;;;;;;26.40;14.80;;;;;;;;;;4985946;28;20446;-56
2022/03/20 00:07:20;;;;;;;20.50;14.10;;;;;;;;;;4975438;28;20505;-56
2022/03/20 00:09:50;;;;;;;22.50;14.10;;;;;;;;;;4981154;28;20470;-57
2022/03/20 00:12:16;;;;;;;23.87;14.10;;;;;;;;;;4982713;28;20438;-57
2022/03/20 00:14:42;;;;;;;19.03;13.67;;;;;;;;;;4981630;28;20696;-56
2022/03/20 00:17:08;;;;;;;21.90;14.00;;;;;;;;;;4979461;28;20433;-57
2022/03/20 00:19:34;;;;;;;23.33;15.20;;;;;;;;;;4983202;28;20828;-56
2022/03/20 00:22:00;;;;;;;22.00;13.97;;;;;;;;;;4974978;28;20510;-57
2022/03/20 00:24:27;;;;;;;20.83;13.50;;;;;;;;;;4982650;28;20270;-55
2022/03/20 00:26:56;;;;;;;23.53;14.23;;;;;;;;;;4979833;28;20437;-56
2022/03/20 00:29:25;;;;;;;23.90;13.70;;;;;;;;;;4979437;28;20427;-57
2022/03/20 00:31:52;;;;;;;23.43;13.77;;;;;;;;;;4981761;28;20431;-56
2022/03/20 00:34:18;;;;;;;20.23;13.90;;;;;;;;;;4986292;28;21018;-57
2022/03/20 00:36:44;;;;;;;24.77;16.10;;;;;;;;;;4985774;28;20446;-57
2022/03/20 00:39:10;;;;;;;21.63;14.23;;;;;;;;;;4984963;28;20458;-56
2022/03/20 00:41:36;;;;;;;25.13;14.07;;;;;;;;;;4983021;28;20427;-56
2022/03/20 00:44:02;;;;;;;24.40;14.87;;;;;;;;;;4986248;28;20517;-56
2022/03/20 00:46:28;;;;;;;22.90;14.70;;;;;;;;;;4986027;28;20501;-57
2022/03/20 00:48:54;;;;;;;21.47;15.60;;;;;;;;;;4983230;28;20514;-56
2022/03/20 00:51:20;;;;;;;24.00;14.40;;;;;;;;;;4987691;28;20952;-57
2022/03/20 00:53:46;;;;;;;25.33;14.80;;;;;;;;;;4977503;28;20569;-56
2022/03/20 00:56:15;;;;;;;25.00;14.13;;;;;;;;;;4985784;28;20466;-56
2022/03/20 00:58:42;;;;;;;25.63;15.80;;;;;;;;;;4985793;28;20443;-57
2022/03/20 01:01:10;;;;;;;25.10;15.50;;;;;;;;;;4985751;28;20433;-56
2022/03/20 01:03:38;;;;;;;27.63;16.30;;;;;;;;;;4985478;28;20448;-57
2022/03/20 01:06:05;;;;;;;23.60;14.40;;;;;;;;;;4982376;28;20909;-57
2022/03/20 01:08:31;;;;;;;24.03;15.93;;;;;;;;;;4979452;28;20474;-58
2022/03/20 01:10:57;;;;;;;27.10;14.70;;;;;;;;;;4982107;28;20505;-57
2022/03/20 01:13:23;;;;;;;22.87;15.23;;;;;;;;;;4982243;28;20514;-57
2022/03/20 01:15:49;;;;;;;20.73;14.30;;;;;;;;;;4984299;28;20464;-57
2022/03/20 01:18:15;;;;;;;27.63;15.40;;;;;;;;;;4985611;28;20419;-57
2022/03/20 01:20:41;;;;;;;31.97;15.10;;;;;;;;;;4984359;28;20430;-56
2022/03/20 01:23:08;;;;;;;22.60;15.33;;;;;;;;;;4981825;28;20474;-57
2022/03/20 01:25:34;;;;;;;25.40;15.20;;;;;;;;;;4981349;28;20876;-56
2022/03/20 01:28:00;;;;;;;24.00;13.63;;;;;;;;;;4982090;28;20918;-56
2022/03/20 01:30:26;;;;;;;25.43;14.60;;;;;;;;;;4981960;28;20423;-57
2022/03/20 01:32:52;;;;;;;21.37;14.40;;;;;;;;;;4984448;28;20434;-57
2022/03/20 01:35:18;;;;;;;21.13;13.80;;;;;;;;;;4985193;28;20520;-57
2022/03/20 01:37:44;;;;;;;21.47;13.80;;;;;;;;;;4980801;28;20423;-57
2022/03/20 01:40:11;;;;;;;25.10;15.20;;;;;;;;;;4984991;28;20473;-56
2022/03/20 01:42:40;;;;;;;25.57;15.90;;;;;;;;;;4984742;28;20514;-56
2022/03/20 01:45:13;;;;;;;21.97;14.80;;;;;;;;;;4984413;28;20429;-56
2022/03/20 01:47:39;;;;;;;21.87;13.80;;;;;;;;;;4984277;28;20837;-57
2022/03/20 01:50:05;;;;;;;21.47;14.43;;;;;;;;;;4981441;28;20431;-57
2022/03/20 01:52:32;;;;;;;21.50;14.07;;;;;;;;;;4981228;28;20434;-57
2022/03/20 01:54:58;;;;;;;22.50;13.83;;;;;;;;;;4984957;28;20461;-57
2022/03/20 01:57:26;;;;;;;21.77;14.57;;;;;;;;;;4992074;28;20437;-56
2022/03/20 01:59:52;;;;;;;24.83;15.90;;;;;;;;;;4982303;28;20908;-56
2022/03/20 02:02:18;;;;;;;25.37;14.17;;;;;;;;;;4981402;28;20435;-56
2022/03/20 02:04:44;;;;;;;26.87;14.43;;;;;;;;;;4982589;28;20423;-56
2022/03/20 02:07:11;;;;;;;24.53;13.33;;;;;;;;;;4983303;28;20460;-56
2022/03/20 02:09:38;;;;;;;26.63;12.67;;;;;;;;;;4981809;28;20926;-56
2022/03/20 02:12:05;;;;;;;24.33;13.40;;;;;;;;;;4984139;28;20438;-56
2022/03/20 02:14:32;;;;;;;20.53;12.60;;;;;;;;;;4984483;28;20825;-56
2022/03/20 02:16:58;;;;;;;19.40;12.77;;;;;;;;;;4984744;28;20512;-56
2022/03/20 02:19:25;;;;;;;22.97;14.10;;;;;;;;;;4984253;28;20433;-56
2022/03/20 02:21:51;;;;;;;27.63;13.77;;;;;;;;;;4981864;28;20422;-56
2022/03/20 02:24:30;;;;;;;21.33;14.40;;;;;;;;;;4980867;28;20509;-56
2022/03/20 02:27:15;;;;;;;27.63;14.77;;;;;;;;;;4983953;28;20464;-56
2022/03/20 02:29:41;;;;;;;19.60;12.97;;;;;;;;;;4978230;28;20875;-56
2022/03/20 02:32:09;;;;;;;21.87;12.47;;;;;;;;;;4980751;28;20428;-56
2022/03/20 02:34:36;;;;;;;22.60;13.03;;;;;;;;;;4981036;28;20514;-56
2022/03/20 02:37:02;;;;;;;23.30;14.10;;;;;;;;;;4983901;28;20517;-56
2022/03/20 02:39:29;;;;;;;18.20;12.97;;;;;;;;;;4980815;28;20427;-56
2022/03/20 02:41:55;;;;;;;17.30;12.47;;;;;;;;;;4983480;28;20414;-56
2022/03/20 02:44:21;;;;;;;24.63;13.47;;;;;;;;;;4983906;28;20499;-56
2022/03/20 02:46:47;;;;;;;23.30;13.40;;;;;;;;;;4974282;28;20458;-56
2022/03/20 02:49:14;;;;;;;26.90;12.70;;;;;;;;;;4980204;28;20435;-57
2022/03/20 02:51:40;;;;;;;24.27;11.70;;;;;;;;;;4981541;28;20450;-56
2022/03/20 02:54:06;;;;;;;19.27;12.50;;;;;;;;;;4983553;28;20828;-56
2022/03/20 02:56:33;;;;;;;21.00;11.90;;;;;;;;;;4982968;28;20422;-56
2022/03/20 02:59:02;;;;;;;26.33;11.70;;;;;;;;;;4980386;28;20427;-56
2022/03/20 03:01:29;;;;;;;15.50;10.80;;;;;;;;;;4983526;28;20425;-56
2022/03/20 03:03:55;;;;;;;22.33;12.17;;;;;;;;;;4972704;28;20480;-56
2022/03/20 03:06:21;;;;;;;20.00;13.53;;;;;;;;;;4980578;28;20429;-56
2022/03/20 03:11:32;;;;;;;18.37;13.40;;;;;;;;;;4980480;28;20478;-56
2022/03/20 03:15:18;;;;;;;21.93;13.30;;;;;;;;;;4983449;28;20434;-56
2022/03/20 03:16:43;;;;;;;19.87;13.10;;;;;;;;;;4983264;28;20434;-56
2022/03/20 03:19:12;;;;;;;22.43;13.20;;;;;;;;;;4966067;28;20429;-56
2022/03/20 03:21:38;;;;;;;22.00;12.23;;;;;;;;;;4983116;28;20794;-56
2022/03/20 03:24:04;;;;;;;21.90;12.47;;;;;;;;;;4979707;28;21019;-55
2022/03/20 03:26:30;;;;;;;19.63;12.63;;;;;;;;;;4980096;28;20423;-55
2022/03/20 03:28:56;;;;;;;18.93;12.33;;;;;;;;;;4983068;28;20435;-54
2022/03/20 03:31:22;;;;;;;22.13;12.13;;;;;;;;;;4983293;28;20258;-55
2022/03/20 03:36:33;;;;;;;21.80;12.43;;;;;;;;;;4974132;28;20565;-54
2022/03/20 03:38:59;;;;;;;26.60;12.87;;;;;;;;;;4983619;28;20514;-55
2022/03/20 03:41:25;;;;;;;21.73;12.00;;;;;;;;;;4979930;28;20457;-54
2022/03/20 03:43:52;;;;;;;23.80;13.00;;;;;;;;;;4982079;28;20423;-54
2022/03/20 03:46:18;;;;;;;20.23;11.73;;;;;;;;;;4983177;28;20430;-54
2022/03/20 03:48:44;;;;;;;26.63;13.53;;;;;;;;;;4981598;28;20793;-54
2022/03/20 03:51:09;;;;;;;21.43;12.20;;;;;;;;;;4979876;28;20435;-54
2022/03/20 03:53:35;;;;;;;24.63;13.03;;;;;;;;;;4979539;28;20517;-54
2022/03/20 03:56:01;;;;;;;18.33;12.90;;;;;;;;;;4983064;28;20556;-54
2022/03/20 03:58:27;;;;;;;18.07;11.23;;;;;;;;;;4983692;28;20514;-56
2022/03/20 04:00:53;;;;;;;16.13;11.57;;;;;;;;;;4982373;28;20215;-56
2022/03/20 04:03:19;;;;;;;18.53;12.93;;;;;;;;;;4983056;28;20183;-56
2022/03/20 04:05:45;;;;;;;21.07;13.13;;;;;;;;;;4981291;28;20433;-56
2022/03/20 04:08:15;;;;;;;22.37;11.97;;;;;;;;;;4981916;28;21006;-57
2022/03/20 04:10:41;;;;;;;20.97;12.73;;;;;;;;;;4994289;28;20846;-57
2022/03/20 04:13:08;;;;;;;19.67;11.50;;;;;;;;;;4983347;28;20422;-57
2022/03/20 04:15:34;;;;;;;25.83;11.50;;;;;;;;;;4983342;28;20903;-56
2022/03/20 04:18:01;;;;;;;21.27;12.17;;;;;;;;;;4986622;28;20414;-56
2022/03/20 04:20:27;;;;;;;19.13;11.53;;;;;;;;;;4986677;28;20780;-56
2022/03/20 04:25:41;;;;;;;18.93;11.93;;;;;;;;;;4990693;28;21091;-56
2022/03/20 04:28:08;;;;;;;19.97;12.20;;;;;;;;;;4982514;28;20422;-56
2022/03/20 04:30:35;;;;;;;22.87;12.43;;;;;;;;;;4982152;28;20423;-56
2022/03/20 04:33:01;;;;;;;17.90;12.23;;;;;;;;;;4985667;28;20432;-56
2022/03/20 04:35:27;;;;;;;14.17;10.63;;;;;;;;;;4986195;28;20461;-56
2022/03/20 04:37:54;;;;;;;21.97;12.70;;;;;;;;;;4981853;28;20938;-56
2022/03/20 04:40:20;;;;;;;20.87;12.20;;;;;;;;;;4981733;28;20848;-57
2022/03/20 04:42:46;;;;;;;23.23;12.17;;;;;;;;;;4982616;28;20422;-57
2022/03/20 04:45:13;;;;;;;18.60;12.63;;;;;;;;;;4982655;28;20431;-56
2022/03/20 04:58:40;;;;;;;23.77;13.80;;;;;;;;;;4985788;28;20413;-56
2022/03/20 05:01:06;;;;;;;22.20;12.17;;;;;;;;;;4985853;28;20422;-56
2022/03/20 05:03:34;;;;;;;15.57;12.07;;;;;;;;;;4968370;28;20898;-56
2022/03/20 05:06:01;;;;;;;18.83;11.70;;;;;;;;;;4990156;28;20427;-57
2022/03/20 05:08:26;;;;;;;20.13;11.93;;;;;;;;;;4985056;28;20430;-57
2022/03/20 05:13:37;;;;;;;19.57;12.00;;;;;;;;;;4977414;28;20470;-56
2022/03/20 05:16:04;;;;;;;26.77;12.90;;;;;;;;;;4985546;28;20469;-56
2022/03/20 05:18:32;;;;;;;16.23;11.80;;;;;;;;;;4985012;28;20919;-56
2022/03/20 05:20:58;;;;;;;19.00;12.03;;;;;;;;;;4981675;28;20438;-56
2022/03/20 05:23:24;;;;;;;18.10;13.00;;;;;;;;;;4981872;28;20427;-56
2022/03/20 05:25:50;;;;;;;20.67;13.40;;;;;;;;;;4984235;28;20526;-56
2022/03/20 05:28:17;;;;;;;24.67;12.77;;;;;;;;;;4985342;28;20919;-56
2022/03/20 05:30:44;;;;;;;22.00;11.70;;;;;;;;;;4984760;28;20447;-56
2022/03/20 05:33:11;;;;;;;17.20;11.73;;;;;;;;;;4985221;28;20509;-56
2022/03/20 05:35:41;;;;;;;22.20;13.43;;;;;;;;;;4984445;28;20461;-56
2022/03/20 05:38:11;;;;;;;23.70;13.60;;;;;;;;;;4981747;28;20488;-56
2022/03/20 05:40:40;;;;;;;25.40;12.97;;;;;;;;;;4984614;28;20923;-56
2022/03/20 05:43:09;;;;;;;21.80;12.40;;;;;;;;;;4981679;28;20423;-56
2022/03/20 05:45:37;;;;;;;20.83;13.00;;;;;;;;;;4984090;28;20484;-56
2022/03/20 05:48:03;;;;;;;16.03;12.20;;;;;;;;;;4977538;28;20991;-56
2022/03/20 05:50:29;;;;;;;19.73;12.10;;;;;;;;;;4984965;28;20769;-56
2022/03/20 05:52:55;;;;;;;19.00;13.17;;;;;;;;;;4981671;28;20462;-57
2022/03/20 05:58:01;;;;;;;22.80;13.50;;;;;;;;;;4981336;28;20470;-56
2022/03/20 05:58:12;;;;;;;20.40;13.17;;;;;;;;;;4988270;28;20569;-56
2022/03/20 06:00:41;;;;;;;23.20;13.20;;;;;;;;;;4981897;28;20426;-57
2022/03/20 06:03:07;;;;;;;26.47;15.17;;;;;;;;;;4983309;28;20838;-56
2022/03/20 06:05:33;;;;;;;24.63;12.97;;;;;;;;;;4984593;28;20415;-56
2022/03/20 06:07:59;;;;;;;19.10;13.23;;;;;;;;;;4984502;28;20449;-56
2022/03/20 06:10:25;;;;;;;25.77;13.30;;;;;;;;;;4984506;28;20931;-56
2022/03/20 06:12:51;;;;;;;23.23;12.70;;;;;;;;;;4982235;28;20423;-56
2022/03/20 06:15:17;;;;;;;24.00;13.43;;;;;;;;;;4981105;28;20809;-56
2022/03/20 06:17:47;;;;;;;26.33;14.20;;;;;;;;;;4982315;28;20430;-57
2022/03/20 06:20:14;;;;;;;20.03;13.50;;;;;;;;;;4984151;28;20980;-57
2022/03/20 06:22:41;;;;;;;25.07;12.03;;;;;;;;;;4984230;28;20427;-57
2022/03/20 06:25:15;;;;;;;20.87;12.73;;;;;;;;;;4984176;28;20454;-56
2022/03/20 06:27:48;;;;;;;21.73;13.00;;;;;;;;;;4983402;28;20427;-57
2022/03/20 06:30:15;;;;;;;21.93;13.20;;;;;;;;;;4980627;28;20854;-56
2022/03/20 06:32:41;;;;;;;24.50;13.80;;;;;;;;;;4964391;28;20427;-56
2022/03/20 06:35:08;;;;;;;29.77;13.70;;;;;;;;;;4983981;28;20462;-57
2022/03/20 06:37:42;;;;;;;21.40;13.47;;;;;;;;;;4981593;28;20964;-56
2022/03/20 06:40:09;;;;;;;33.90;14.57;;;;;;;;;;4984590;28;20445;-56
2022/03/20 06:42:35;;;;;;;26.30;15.10;;;;;;;;;;4983967;28;20867;-56
2022/03/20 06:45:03;;;;;;;23.27;14.23;;;;;;;;;;4980530;28;20862;-56
2022/03/20 06:47:31;;;;;;;24.83;13.80;;;;;;;;;;4981041;28;21025;-56
2022/03/20 06:49:57;;;;;;;22.87;13.77;;;;;;;;;;4983543;28;20458;-55
2022/03/20 06:52:23;;;;;;;24.93;14.63;;;;;;;;;;4983352;28;20446;-54
2022/03/20 06:54:49;;;;;;;26.43;14.63;;;;;;;;;;4983467;28;20481;-54
2022/03/20 06:57:19;;;;;;;25.73;14.80;;;;;;;;;;4990284;28;20426;-54
2022/03/20 06:59:45;;;;;;;25.83;15.00;;;;;;;;;;4982027;28;20567;-54
2022/03/20 07:02:11;;;;;;;23.10;14.13;;;;;;;;;;4980258;28;20937;-54
2022/03/20 07:04:37;;;;;;;26.03;15.50;;;;;;;;;;4980711;28;20419;-56
2022/03/20 07:07:04;;;;;;;19.90;13.87;;;;;;;;;;4983287;28;20422;-57
2022/03/20 07:09:29;;;;;;;31.80;17.07;;;;;;;;;;4984364;28;20426;-55
2022/03/20 07:11:56;;;;;;;25.80;15.40;;;;;;;;;;4989239;28;20865;-56
2022/03/20 07:14:22;;;;;;;29.93;16.00;;;;;;;;;;4969055;28;20184;-55
2022/03/20 07:16:48;;;;;;;30.67;15.30;;;;;;;;;;4985230;28;20778;-56
2022/03/20 07:19:14;;;;;;;22.97;15.10;;;;;;;;;;4983932;28;20434;-56
2022/03/20 07:21:40;;;;;;;25.90;14.50;;;;;;;;;;4980017;28;20972;-56
2022/03/20 07:24:07;;;;;;;20.80;14.00;;;;;;;;;;4981609;28;20435;-55
2022/03/20 07:29:30;;;;;;;24.17;13.87;;;;;;;;;;4979708;28;20457;-57
2022/03/20 07:31:57;;;;;;;27.73;14.90;;;;;;;;;;4983320;28;20434;-55
2022/03/20 07:34:24;;;;;;;31.30;16.77;;;;;;;;;;4980502;28;20469;-56
2022/03/20 07:36:50;;;;;;;24.10;15.70;;;;;;;;;;4982526;28;20426;-57
2022/03/20 07:39:16;;;;;;;28.03;16.50;;;;;;;;;;4983085;28;20438;-60
2022/03/20 07:41:43;;;;;;;28.63;16.23;;;;;;;;;;4979701;28;20498;-58
2022/03/20 07:44:10;;;;;;;28.47;15.30;;;;;;;;;;4988030;28;20936;-57
2022/03/20 07:46:36;;;;;;;22.50;14.20;;;;;;;;;;4987755;28;20593;-54
2022/03/20 07:49:07;;;;;;;25.43;14.63;;;;;;;;;;4991388;28;20438;-58
2022/03/20 07:51:33;;;;;;;31.27;16.87;;;;;;;;;;4973381;28;20525;-57
2022/03/20 07:53:59;;;;;;;28.27;16.63;;;;;;;;;;4990598;28;20592;-57
2022/03/20 07:56:25;;;;;;;28.07;15.63;;;;;;;;;;4985573;28;20990;-57
2022/03/20 07:58:51;;;;;;;30.60;16.60;;;;;;;;;;4991929;28;20434;-58
2022/03/20 08:01:17;;;;;;;27.80;15.33;;;;;;;;;;4972316;28;20964;-58
2022/03/20 08:03:43;;;;;;;23.27;15.60;;;;;;;;;;4987476;28;20668;-58
2022/03/20 08:06:10;;;;;;;22.80;15.70;;;;;;;;;;4987693;28;20438;-57
2022/03/20 08:08:39;;;;;;;27.40;16.70;;;;;;;;;;4989849;28;20442;-57
2022/03/20 08:11:05;;;;;;;22.93;15.27;;;;;;;;;;4988138;28;20448;-56
2022/03/20 08:13:31;;;;;;;23.57;15.80;;;;;;;;;;4988408;28;20482;-57
2022/03/20 08:15:58;;;;;;;29.60;16.23;;;;;;;;;;4985940;28;20516;-57
2022/03/20 08:18:24;;;;;;;25.93;16.70;;;;;;;;;;4993084;28;20496;-57
2022/03/20 08:20:49;;;;;;;28.10;16.27;;;;;;;;;;4986772;28;20422;-56
2022/03/20 08:23:16;;;;;;;27.07;16.13;;;;;;;;;;4992724;28;20477;-57
2022/03/20 08:25:42;;;;;;;28.07;16.40;;;;;;;;;;4985969;28;20422;-57
2022/03/20 08:28:12;;;;;;;22.57;15.27;;;;;;;;;;4982880;28;20514;-57
2022/03/20 08:30:41;;;;;;;28.20;16.30;;;;;;;;;;4985584;28;21020;-58
2022/03/20 08:33:07;;;;;;;29.87;16.70;;;;;;;;;;4987936;28;20428;-58
2022/03/20 08:35:33;;;;;;;28.53;16.43;;;;;;;;;;4991904;28;20894;-61
2022/03/20 08:37:59;;;;;;;27.63;16.80;;;;;;;;;;4993725;28;20434;-57
2022/03/20 08:40:26;;;;;;;31.50;17.30;;;;;;;;;;4986785;28;20527;-57
2022/03/20 08:42:53;;;;;;;26.77;15.33;;;;;;;;;;4989980;28;20445;-57
2022/03/20 08:45:20;;;;;;;30.60;16.50;;;;;;;;;;4989985;28;20438;-58
2022/03/20 08:47:47;;;;;;;26.57;18.10;;;;;;;;;;4987106;28;20427;-55
2022/03/20 08:50:14;;;;;;;27.67;17.00;;;;;;;;;;4985030;28;20489;-55
2022/03/20 08:52:40;;;;;;;24.43;16.60;;;;;;;;;;4989632;28;20476;-56
2022/03/20 08:55:10;;;;;;;29.30;17.47;;;;;;;;;;4986099;28;20467;-56
2022/03/20 08:57:54;;;;;;;31.03;16.57;;;9.60;99.90;;;;;;4986525;28;20966;-57
2022/03/20 09:00:22;;;;;;;30.10;18.33;;;;;;;;;;4980450;28;20797;-58
2022/03/20 09:02:48;;;;;;;27.23;17.60;;;;;;;;;;4981600;28;20478;-57
2022/03/20 09:05:15;;;;;;;30.90;17.77;;;;;;;;;;4985365;28;20505;-56
2022/03/20 09:07:41;;;;;;;25.20;17.63;;;;;;;;;;4981548;28;20439;-56
2022/03/20 09:10:08;;;;;;;25.77;18.10;;;;;;;;;;4983905;28;20554;-56
2022/03/20 09:12:39;;;;;;;29.47;18.50;;;;;;;;;;4985849;28;20430;-58
2022/03/20 09:15:06;;;;;;;34.50;18.70;;;;;;;;;;4981345;28;20851;-56
2022/03/20 09:20:18;;;;;;;27.10;17.00;;;;;;;;;;4980774;28;20441;-56
2022/03/20 09:22:44;;;;;;;26.77;17.97;;;;;;;;;;4982845;28;20714;-57
2022/03/20 09:25:10;;;;;;;30.53;18.53;;;;;;;;;;4983497;28;20469;-55
2022/03/20 09:27:36;;;;;;;28.97;17.10;;;9.70;99.90;;;;;;4986445;28;20431;-56
2022/03/20 09:30:03;;;;;;;29.23;16.97;;;;;;;;;;4985517;28;20429;-57
2022/03/20 09:32:29;;;;;;;28.70;16.53;;;;;;;;;;4991211;28;20249;-59
2022/03/20 09:34:55;;;;;;;26.60;17.53;;;;;;;;;;4983228;28;20516;-57
2022/03/20 09:37:21;;;;;;;33.93;16.93;;;;;;;;;;4987538;28;20414;-55
2022/03/20 09:39:47;;;;;;;32.90;18.27;;;;;;;;;;4990748;28;20420;-56
2022/03/20 09:42:14;;;;;;;28.57;17.37;;;;;;;;;;4983385;28;20179;-55
2022/03/20 09:44:40;;;;;;;27.80;15.20;;;;;;;;;;4980579;28;20431;-59
2022/03/20 09:47:10;;;;;;;26.97;18.07;;;;;;;;;;4982521;28;20919;-55
2022/03/20 09:49:36;;;;;;;23.70;16.47;;;;;;;;;;4978819;28;20470;-59
2022/03/20 09:52:03;;;;;;;31.13;18.80;;;;;;;;;;4989413;28;20512;-62
2022/03/20 09:54:29;;;;;;;26.43;17.40;;;;;;;;;;4982059;28;20470;-56
2022/03/20 09:56:55;;;;;;;24.20;17.47;;;;;;;;;;4984616;28;20428;-57
2022/03/20 09:59:21;;;;;;;25.83;17.30;;;;;;;;;;4984054;28;20427;-57
2022/03/20 10:01:47;;;;;;;31.10;18.83;;;;;;;;;;4982980;28;20434;-57
2022/03/20 10:04:18;;;;;;;29.40;18.20;;;;;;;;;;4980370;28;20423;-58
2022/03/20 10:06:45;;;;;;;30.90;17.13;;;;;;;;;;4983926;28;20426;-60
2022/03/20 10:09:12;;;;;;;26.90;18.03;;;;;;;;;;4983931;28;21002;-57
2022/03/20 10:11:49;;;;;;;31.03;19.77;;;;;;;;;;4981430;28;20435;-56
2022/03/20 10:14:15;;;;;;;27.23;18.20;;;;;;;;;;4981707;28;20430;-57
2022/03/20 10:16:42;;;;;;;26.23;18.57;;;;;;;;;;4980335;28;20427;-57
2022/03/20 10:19:40;;;;;;;31.43;18.87;;;;;;;;;;4982098;28;20544;-61
2022/03/20 10:22:07;;;;;;;36.67;20.27;;;;;;;;;;4917972;28;20422;-56
2022/03/20 10:24:37;;;;;;;26.77;17.83;;;;;;;;;;4976919;28;20525;-58
2022/03/20 10:27:03;;;;;;;25.97;17.77;;;;;;;;;;4981821;28;20439;-57
2022/03/20 10:29:30;;;;;;;25.73;17.60;;;;;;;;;;4977812;28;21008;-57
2022/03/20 10:31:57;;;;;;;27.27;17.17;;;;;;;;;;4980754;28;20926;-58
2022/03/20 10:34:23;;;;;;;26.50;17.30;;;;;;;;;;4963478;28;20864;-58
2022/03/20 10:36:51;;;;;;;27.30;19.33;;;;;;;;;;4979009;28;20498;-59
2022/03/20 10:39:20;;;;;;;28.83;18.07;;;;;;;;;;4977549;28;20423;-59
2022/03/20 10:41:48;;;;;;;26.40;17.00;;;;;;;;;;4980478;28;20942;-57
2022/03/20 10:44:15;;;;;;;27.37;17.67;;;;;;;;;;4982620;28;20510;-58
2022/03/20 10:46:42;;;;;;;25.00;17.27;;;;;;;;;;4979798;28;20476;-57
2022/03/20 10:49:09;;;;;;;25.73;17.47;;;;;;;;;;4978268;28;20419;-57
2022/03/20 10:51:40;;;;;;;24.70;17.23;;;9.70;1.00;;;;;;4978280;28;20914;-57
2022/03/20 10:54:06;;;;;;;29.53;19.20;;;;;;;;;;4980445;28;20472;-59
2022/03/20 10:56:32;;;;;;;24.70;16.87;;;;;;;;;;4980328;28;20579;-58
2022/03/20 10:58:58;;;;;;;37.40;17.60;;;;;;;;;;4980517;28;20426;-57
2022/03/20 11:01:35;;;;;;;27.60;16.87;;;;;;;;;;4988288;28;20488;-58
2022/03/20 11:04:01;;;;;;;30.80;17.70;;;;;;;;;;4980719;28;20414;-58
2022/03/20 11:06:27;;;;;;;28.60;17.07;;;;;;;;;;4980685;28;20418;-58
2022/03/20 11:08:53;;;;;;;23.97;16.13;;;;;;;;;;4982433;28;20429;-58
2022/03/20 11:11:20;;;;;;;24.47;17.67;;;;;;;;;;4977534;28;20422;-58
2022/03/20 11:13:48;;;;;;;31.27;19.17;;;;;;;;;;4979170;28;20431;-58
2022/03/20 11:16:15;;;;;;;24.57;17.37;;;;;;;;;;4983593;28;20467;-58
2022/03/20 11:18:41;;;;;;;26.70;16.87;;;;;;;;;;4977759;28;20423;-57
2022/03/20 11:21:10;;;;;;;33.27;19.50;;;;;;;;;;4988042;28;20423;-61
2022/03/20 11:23:36;;;;;;;28.60;18.30;;;12.40;1.00;;;;;;4988285;28;20897;-57
2022/03/20 11:26:03;;;;;;;29.60;19.60;;;13.50;1.00;;;;;;4980737;28;20984;-59
2022/03/20 11:28:34;;;;;;;27.37;16.67;;;;;;;;;;4981364;28;20595;-58
2022/03/20 11:31:01;;;;;;;27.63;17.97;;;;;;;;;;4980726;28;20461;-58
2022/03/20 11:33:27;;;;;;;30.93;19.10;;;;;;;;;;4980447;28;20513;-59
2022/03/20 11:35:53;;;;;;;30.90;19.00;;;;;;;;;;4977738;28;20477;-60
2022/03/20 11:38:20;;;;;;;25.23;17.77;;;;;;;;;;4975393;28;20422;-58
2022/03/20 11:41:23;;;;;;;33.17;19.27;;;;;;;;;;4980665;28;20929;-57
2022/03/20 11:44:08;;;;;;;25.73;17.43;;;;;;;;;;4907953;29;20437;-57
2022/03/20 11:46:34;;;;;;;33.77;16.40;;;;;;;;;;4976226;28;20438;-57
2022/03/20 11:49:19;;;;;;;25.67;16.70;;;;;;;;;;4983798;28;20453;-57
2022/03/20 11:51:54;;;;;;;25.80;17.67;;;;;;;;;;4978261;28;20438;-58
2022/03/20 11:54:21;;;;;;;31.47;18.53;;;;;;;;;;4984319;28;20483;-57
2022/03/20 11:56:48;;;;;;;27.87;19.20;;;;;;;;;;4983759;28;20427;-58
2022/03/20 11:59:33;;;;;;;34.47;18.90;;;;;;;;;;4979586;28;20948;-57
2022/03/20 12:02:01;;;;;;;28.30;19.27;;;;;;;;;;4981053;28;20916;-57
2022/03/20 12:04:33;;;;;;;23.80;17.97;;;;;;;;;;4980916;28;20435;-57
2022/03/20 12:07:14;;;;;;;25.07;17.80;;;;;;;;;;4962564;28;20465;-58
2022/03/20 12:10:00;;;;;;;28.00;18.83;;;;;;;;;;4983004;28;20569;-56
2022/03/20 12:12:44;;;;;;;37.07;19.00;;;;;;;;;;4982008;28;20971;-58
2022/03/20 12:15:11;;;;;;;26.83;17.00;;;;;;;;;;4978521;28;20485;-58
2022/03/20 12:18:08;;;;;;;26.30;16.43;;;13.50;1.00;;;;;;4983174;28;20430;-57
2022/03/20 12:20:53;;;;;;;24.83;17.97;;;;;;;;;;4971743;28;20546;-57
2022/03/20 12:23:33;;;;;;;24.93;17.20;;;13.80;1.00;;;;;;4979951;28;20449;-57
2022/03/20 12:26:19;;;;;;;30.43;19.33;;;;;;;;;;4982153;28;20441;-57
2022/03/20 12:28:45;;;;;;;36.57;18.40;;;13.80;1.00;;;;;;4979968;28;20495;-57
2022/03/20 12:31:11;;;;;;;32.87;17.97;;;;;;;;;;4980548;28;20430;-57
2022/03/20 12:33:36;;;;;;;27.70;18.10;;;;;;;;;;4985196;28;20202;-56
2022/03/20 12:36:02;;;;;;;23.97;17.10;;;;;;;;;;4989652;28;20250;-57
2022/03/20 12:38:40;;;;;;;24.70;18.00;;;14.70;1.00;;;;;;4985106;28;20685;-58
2022/03/20 12:41:17;;;;;;;25.73;18.40;;;14.30;1.00;;;;;;4982204;28;20434;-57
2022/03/20 12:43:56;;;;;;;32.73;19.33;;;;;;;;;;4986430;28;20475;-57
2022/03/20 12:46:22;;;;;;;27.93;18.10;;;;;;;;;;4982328;28;20438;-57
2022/03/20 12:48:52;;;;;;;29.97;19.90;;;;;;;;;;4986600;28;20465;-57
2022/03/20 12:51:23;;;;;;;31.93;18.60;;;;;;;;;;4986848;28;20794;-57
2022/03/20 12:53:51;;;;;;;31.37;19.50;;;;;;;;;;4968402;28;20470;-55
2022/03/20 12:56:29;;;;;;;29.10;18.50;;;;;;;;;;4983338;28;20968;-55
2022/03/20 12:58:55;;;;;;;27.37;17.80;;;14.10;1.00;;;;;;4987049;28;20430;-55
2022/03/20 13:01:21;;;;;;;30.33;18.80;;;14.30;1.00;;;;;;4978415;28;20507;-56
2022/03/20 13:03:47;;;;;;;25.30;18.20;;;14.20;1.00;;;;;;4989095;28;20705;-57
2022/03/20 13:06:13;;;;;;;31.30;19.43;;;14.30;1.00;;;;;;4979986;28;20625;-56
2022/03/20 13:08:45;;;;;;;31.07;19.27;;;14.70;1.00;;;;;;4985867;28;20186;-57
2022/03/20 13:14:12;;;;;;;27.43;18.50;;;14.80;1.00;;;;;;4987984;28;20480;-57
2022/03/20 13:16:58;;;;;;;30.07;19.20;;;14.70;1.00;;;;;;4980437;28;20539;-57
2022/03/20 13:19:34;;;;;;;29.97;18.73;;;14.50;1.00;;;;;;4986127;28;20501;-57
2022/03/20 13:22:05;;;;;;;25.67;17.27;;;14.30;1.00;;;;;;4979654;28;20437;-57
2022/03/20 13:24:36;;;;;;;27.13;17.73;;;14.20;1.00;;;;;;4981647;28;20942;-58
2022/03/20 13:27:05;;;;;;;27.63;18.20;;;14.50;1.00;;;;;;4983473;28;20917;-58
2022/03/20 13:29:31;;;;;;;26.93;16.80;;;14.90;1.00;;;;;;4983745;28;20972;-58
2022/03/20 13:32:04;;;;;;;25.00;16.80;;;14.80;1.00;;;;;;4988872;28;20423;-56
2022/03/20 13:34:32;;;;;;;26.37;20.00;;;14.40;1.00;;;;;;4981094;28;20438;-58
2022/03/20 13:37:06;;;;;;;31.07;19.17;;;;;;;;;;4979991;28;20437;-58
2022/03/20 13:39:32;;;;;;;27.60;19.07;;;;;;;;;;4987143;28;20472;-58
2022/03/20 13:41:57;;;;;;;30.23;19.63;;;14.30;1.00;;;;;;4986044;28;20445;-57
2022/03/20 13:44:23;;;;;;;30.00;20.00;;;;;;;;;;4986180;28;21324;-59
2022/03/20 13:46:49;;;;;;;26.73;18.13;;;;;;;;;;4986854;28;20614;-58
2022/03/20 13:49:16;;;;;;;29.47;19.37;;;;;;;;;;4961975;28;20590;-59
2022/03/20 13:51:45;;;;;;;28.50;20.20;;;;;;;;;;4980901;28;20951;-58
2022/03/20 13:54:16;;;;;;;29.37;18.43;;;;;;;;;;4982493;28;20828;-58
2022/03/20 13:56:43;;;;;;;28.43;17.20;;;;;;;;;;4984483;28;20470;-57
2022/03/20 13:59:12;;;;;;;31.60;19.53;;;14.10;1.00;;;;;;4986105;28;20449;-57
2022/03/20 14:01:45;;;;;;;26.43;18.70;;;;;;;;;;4972445;28;20441;-56
2022/03/20 14:04:13;;;;;;;28.90;19.23;;;;;;;;;;4983956;28;20457;-58
2022/03/20 14:06:40;;;;;;;29.57;19.17;;;;;;;;;;4983584;28;20438;-57
2022/03/20 14:09:07;;;;;;;27.73;19.30;;;14.30;1.00;;;;;;4985263;28;20922;-58
2022/03/20 14:11:35;;;;;;;29.73;18.00;;;14.40;1.00;;;;;;4981621;28;20474;-57
2022/03/20 14:14:01;;;;;;;30.83;17.77;;;;;;;;;;4982253;28;20438;-57
2022/03/20 14:16:27;;;;;;;28.77;19.37;;;14.60;1.00;;;;;;4979783;28;20466;-56
2022/03/20 14:18:53;;;;;;;27.97;19.63;;;;;;;;;;4984334;28;20435;-56
2022/03/20 14:21:21;;;;;;;32.67;18.40;;;;;;;;;;4980973;28;20245;-56
2022/03/20 14:24:11;;;;;;;29.10;18.63;;;14.70;1.00;;;;;;4983037;28;20279;-57
2022/03/20 14:26:38;;;;;;;27.10;18.17;;;;;;;;;;4984635;28;20442;-56
2022/03/20 14:40:47;;;;;;;25.80;18.20;;;;;;;;;;4981528;28;20433;-56
2022/03/20 14:43:13;;;;;;;25.07;18.00;;;;;;;;;;4981848;28;20888;-56
2022/03/20 14:45:40;;;;;;;28.13;19.20;;;;;;;;;;4982932;28;20496;-57
2022/03/20 14:48:10;;;;;;;23.00;17.43;;;;;;;;;;4982687;28;20477;-56
2022/03/20 14:50:36;;;;;;;26.33;17.03;;;;;;;;;;4978998;28;20465;-56
2022/03/20 14:53:02;;;;;;;25.70;18.27;;;;;;;;;;4976060;28;20961;-56